createdAt,value
2023-01-04T00:00:40.955Z,17.85
2023-01-04T00:02:02.747Z,17.13
2023-01-04T00:03:24.690Z,17.95
2023-01-04T00:04:46.484Z,18.02
2023-01-04T00:06:10.631Z,17.40
2023-01-04T00:07:32.348Z,18.70
2023-01-04T00:08:55.195Z,16.02
2023-01-04T00:10:18.800Z,16.63
2023-01-04T00:11:40.845Z,16.10
2023-01-04T00:13:02.752Z,15.27
2023-01-04T00:14:24.619Z,15.07
2023-01-04T00:15:46.730Z,15.40
2023-01-04T00:17:08.549Z,17.20
2023-01-04T00:18:31.531Z,17.73
2023-01-04T00:19:53.981Z,17.23
2023-01-04T00:21:18.356Z,17.27
2023-01-04T00:22:40.213Z,18.45
2023-01-04T00:24:02.707Z,18.52
2023-01-04T00:25:24.813Z,17.02
2023-01-04T00:26:46.829Z,16.50
2023-01-04T00:28:08.749Z,19.58
2023-01-04T00:29:30.856Z,20.77
2023-01-04T00:30:52.485Z,22.25
2023-01-04T00:32:14.411Z,22.27
2023-01-04T00:33:36.744Z,22.42
2023-01-04T00:34:58.437Z,23.58
2023-01-04T00:36:20.189Z,21.48
2023-01-04T00:37:45.680Z,21.17
2023-01-04T00:39:15.397Z,20.63
2023-01-04T00:40:37.166Z,20.73
2023-01-04T00:42:05.301Z,19.80
2023-01-04T00:43:27.796Z,19.65
2023-01-04T00:44:49.454Z,19.08
2023-01-04T00:46:11.723Z,18.02
2023-01-04T00:47:33.436Z,19.38
2023-01-04T00:49:00.157Z,17.85
2023-01-04T00:50:22.263Z,20.40
2023-01-04T00:51:44.114Z,19.65
2023-01-04T00:53:05.990Z,19.48
2023-01-04T00:54:28.485Z,19.83
2023-01-04T00:55:50.496Z,19.10
2023-01-04T00:57:12.279Z,18.52
2023-01-04T00:58:34.045Z,20.88
2023-01-04T00:59:55.893Z,22.42
2023-01-04T01:01:17.872Z,25.48
2023-01-04T01:02:39.986Z,31.13
2023-01-04T01:04:04.475Z,33.15
2023-01-04T01:05:26.764Z,35.33
2023-01-04T01:06:49.246Z,38.65
2023-01-04T01:08:26.999Z,46.38
2023-01-04T01:09:48.601Z,46.55
2023-01-04T01:11:11.161Z,50.05
2023-01-04T01:12:32.750Z,57.40
2023-01-04T01:13:54.896Z,63.53
2023-01-04T01:15:16.859Z,66.53
2023-01-04T01:16:54.503Z,67.05
2023-01-04T01:18:17.895Z,66.38
2023-01-04T01:19:39.869Z,66.82
2023-01-04T01:21:05.903Z,63.83
2023-01-04T01:22:27.837Z,62.50
2023-01-04T01:23:50.765Z,64.55
2023-01-04T01:25:12.767Z,59.55
2023-01-04T01:26:34.862Z,60.30
2023-01-04T01:27:56.741Z,59.78
2023-01-04T01:29:18.724Z,61.22
2023-01-04T01:30:42.683Z,58.10
2023-01-04T01:32:04.603Z,54.42
2023-01-04T01:33:27.589Z,50.50
2023-01-04T01:34:49.392Z,46.67
2023-01-04T01:36:13.241Z,44.25
2023-01-04T01:37:34.838Z,39.03
2023-01-04T01:38:57.092Z,37.00
2023-01-04T01:40:19.176Z,35.97
2023-01-04T01:41:40.806Z,34.83
2023-01-04T01:43:02.654Z,32.75
2023-01-04T01:44:43.137Z,33.08
2023-01-04T01:46:04.967Z,34.13
2023-01-04T01:47:43.406Z,31.35
2023-01-04T01:49:27.379Z,29.77
2023-01-04T01:50:56.345Z,30.13
2023-01-04T01:52:38.969Z,30.15
2023-01-04T01:54:10.754Z,31.17
2023-01-04T01:55:33.774Z,29.20
2023-01-04T01:57:00.157Z,27.15
2023-01-04T01:58:41.492Z,27.80
2023-01-04T02:00:12.560Z,24.85
2023-01-04T02:01:37.029Z,24.23
2023-01-04T02:03:35.283Z,23.23
2023-01-04T02:04:58.931Z,23.35
2023-01-04T02:06:29.682Z,29.10
2023-01-04T02:07:52.020Z,26.95
2023-01-04T02:09:14.548Z,27.77
2023-01-04T02:10:36.362Z,28.20
2023-01-04T02:11:59.296Z,27.75
2023-01-04T02:13:47.894Z,28.23
2023-01-04T02:15:11.046Z,28.98
2023-01-04T02:16:50.687Z,23.33
2023-01-04T02:18:18.135Z,24.15
2023-01-04T02:20:11.247Z,21.75
2023-01-04T02:21:58.868Z,21.17
2023-01-04T02:23:26.317Z,19.13
2023-01-04T02:25:29.452Z,19.30
2023-01-04T02:26:57.338Z,19.42
2023-01-04T02:28:34.386Z,20.80
2023-01-04T02:30:37.905Z,20.45
2023-01-04T02:32:09.028Z,23.10
2023-01-04T02:34:09.624Z,23.63
2023-01-04T02:35:31.316Z,24.70
2023-01-04T02:37:01.200Z,26.10
2023-01-04T02:38:52.658Z,24.90
2023-01-04T02:40:37.255Z,24.10
2023-01-04T02:42:21.072Z,22.83
2023-01-04T02:44:16.121Z,23.25
2023-01-04T02:45:47.402Z,24.25
2023-01-04T02:47:44.217Z,26.52
2023-01-04T02:49:24.475Z,26.73
2023-01-04T02:50:57.183Z,28.40
2023-01-04T02:52:20.373Z,31.67
2023-01-04T02:53:42.543Z,31.13
2023-01-04T02:55:07.182Z,32.70
2023-01-04T02:57:02.666Z,32.88
2023-01-04T02:58:32.821Z,35.50
2023-01-04T03:00:29.132Z,34.17
2023-01-04T03:02:18.453Z,35.03
2023-01-04T03:04:40.743Z,33.92
2023-01-04T03:06:26.258Z,33.85
2023-01-04T03:08:01.836Z,33.00
2023-01-04T03:09:29.374Z,35.00
2023-01-04T03:10:59.434Z,34.25
2023-01-04T03:12:32.843Z,32.72
2023-01-04T03:14:02.440Z,32.25
2023-01-04T03:15:48.715Z,33.55
2023-01-04T03:17:14.774Z,31.52
2023-01-04T03:18:44.558Z,33.03
2023-01-04T03:20:10.122Z,32.75
2023-01-04T03:21:33.700Z,30.48
2023-01-04T03:23:27.034Z,29.15
2023-01-04T03:25:07.184Z,28.50
2023-01-04T03:26:55.826Z,26.77
2023-01-04T03:28:38.757Z,25.35
2023-01-04T03:30:28.507Z,28.38
2023-01-04T03:33:54.607Z,30.63
2023-01-04T03:35:28.129Z,30.60
2023-01-04T03:37:11.680Z,32.13
2023-01-04T03:39:12.659Z,31.80
2023-01-04T03:40:54.715Z,31.80
2023-01-04T03:42:49.798Z,31.90
2023-01-04T03:44:53.823Z,33.35
2023-01-04T03:46:33.940Z,32.35
2023-01-04T03:48:18.979Z,34.45
2023-01-04T03:49:57.466Z,33.47
2023-01-04T03:51:25.764Z,31.52
2023-01-04T03:52:50.401Z,30.67
2023-01-04T03:54:27.213Z,30.55
2023-01-04T03:55:51.098Z,29.48
2023-01-04T03:57:14.811Z,30.80
2023-01-04T03:58:37.614Z,27.50
2023-01-04T04:00:13.425Z,28.27
2023-01-04T04:01:37.042Z,27.80
2023-01-04T04:03:07.450Z,28.20
2023-01-04T04:04:47.981Z,26.70
2023-01-04T04:06:28.672Z,29.15
2023-01-04T04:08:08.805Z,37.33
2023-01-04T04:09:30.399Z,41.55
2023-01-04T04:10:52.850Z,40.00
2023-01-04T04:12:14.708Z,39.28
2023-01-04T04:13:36.826Z,38.30
2023-01-04T04:14:58.699Z,36.65
2023-01-04T04:16:20.829Z,38.78
2023-01-04T04:17:42.452Z,37.17
2023-01-04T04:19:08.634Z,36.67
2023-01-04T04:20:30.996Z,31.90
2023-01-04T04:21:52.822Z,32.38
2023-01-04T04:23:14.441Z,31.15
2023-01-04T04:24:36.978Z,33.30
2023-01-04T04:25:58.811Z,36.30
2023-01-04T04:27:20.801Z,41.90
2023-01-04T04:28:43.250Z,43.80
2023-01-04T04:30:05.578Z,43.20
2023-01-04T04:31:27.439Z,45.10
2023-01-04T04:32:49.149Z,46.72
2023-01-04T04:34:11.666Z,46.08
2023-01-04T04:35:33.613Z,54.47
2023-01-04T04:36:55.620Z,72.05
2023-01-04T04:38:17.585Z,79.10
2023-01-04T04:39:39.450Z,98.75
2023-01-04T04:41:24.899Z,112.20
2023-01-04T04:42:47.046Z,110.50
2023-01-04T04:44:17.884Z,106.97
2023-01-04T04:45:39.927Z,103.05
2023-01-04T04:47:02.303Z,95.50
2023-01-04T04:48:24.214Z,98.68
2023-01-04T04:49:46.330Z,94.32
2023-01-04T04:51:08.316Z,88.47
2023-01-04T04:52:30.349Z,85.60
2023-01-04T04:53:52.172Z,79.88
2023-01-04T04:55:14.086Z,71.47
2023-01-04T04:56:39.294Z,69.40
2023-01-04T04:58:01.082Z,64.82
2023-01-04T04:59:23.007Z,63.55
2023-01-04T05:00:44.741Z,59.20
2023-01-04T05:02:06.829Z,61.10
2023-01-04T05:03:29.367Z,66.60
2023-01-04T05:04:51.096Z,66.03
2023-01-04T05:06:13.769Z,70.20
2023-01-04T05:07:35.711Z,69.40
2023-01-04T05:08:57.559Z,69.60
2023-01-04T05:10:19.319Z,72.50
2023-01-04T05:12:00.340Z,68.68
2023-01-04T05:13:22.534Z,69.93
2023-01-04T05:14:44.052Z,71.55
2023-01-04T05:16:07.701Z,69.93
2023-01-04T05:17:29.720Z,71.57
2023-01-04T05:18:51.557Z,76.75
2023-01-04T05:20:13.432Z,84.50
2023-01-04T05:21:35.203Z,86.43
2023-01-04T05:22:57.023Z,89.75
2023-01-04T05:24:18.904Z,90.35
2023-01-04T05:25:41.054Z,83.72
2023-01-04T05:27:02.952Z,84.60
2023-01-04T05:28:25.230Z,82.65
2023-01-04T05:30:05.606Z,85.55
2023-01-04T05:31:27.393Z,91.63
2023-01-04T05:32:49.678Z,95.95
2023-01-04T05:34:11.228Z,93.07
2023-01-04T05:35:33.179Z,95.72
2023-01-04T05:36:55.055Z,105.53
2023-01-04T05:38:17.320Z,96.95
2023-01-04T05:39:39.301Z,92.97
2023-01-04T05:41:01.084Z,92.50
2023-01-04T05:42:25.735Z,97.30
2023-01-04T05:43:47.353Z,96.82
2023-01-04T05:45:09.992Z,96.57
2023-01-04T05:46:31.877Z,99.07
2023-01-04T05:47:54.683Z,104.25
2023-01-04T05:49:16.396Z,99.47
2023-01-04T05:50:38.019Z,96.93
2023-01-04T05:51:59.839Z,98.28
2023-01-04T05:53:21.846Z,100.50
2023-01-04T05:54:43.904Z,101.07
2023-01-04T05:56:06.176Z,98.20
2023-01-04T05:57:28.038Z,95.40
2023-01-04T05:58:50.026Z,94.75
2023-01-04T06:00:13.457Z,95.53
2023-01-04T06:01:35.058Z,97.30
2023-01-04T06:02:57.321Z,99.20
2023-01-04T06:04:20.273Z,101.55
2023-01-04T06:05:42.120Z,106.10
2023-01-04T06:07:03.732Z,102.07
2023-01-04T06:08:25.625Z,104.53
2023-01-04T06:09:47.696Z,109.95
2023-01-04T06:11:09.564Z,111.28
2023-01-04T06:12:31.453Z,113.63
2023-01-04T06:13:53.241Z,113.93
2023-01-04T06:15:15.603Z,123.55
2023-01-04T06:16:37.677Z,131.05
2023-01-04T06:17:59.521Z,146.18
2023-01-04T06:19:21.169Z,142.73
2023-01-04T06:20:43.881Z,156.82
2023-01-04T06:22:06.832Z,142.23
2023-01-04T06:23:29.263Z,131.40
2023-01-04T06:24:51.114Z,118.22
2023-01-04T06:26:13.301Z,129.10
2023-01-04T06:27:34.982Z,123.18
2023-01-04T06:28:56.960Z,125.70
2023-01-04T06:30:18.965Z,132.02
2023-01-04T06:31:41.079Z,135.43
2023-01-04T06:33:02.714Z,136.45
2023-01-04T06:34:30.574Z,142.68
2023-01-04T06:35:57.160Z,124.55
2023-01-04T06:37:19.170Z,115.82
2023-01-04T06:38:40.905Z,108.00
2023-01-04T06:40:03.477Z,114.03
2023-01-04T06:41:25.572Z,101.13
2023-01-04T06:42:47.653Z,94.18
2023-01-04T06:44:09.511Z,90.65
2023-01-04T06:45:32.350Z,92.45
2023-01-04T06:46:54.272Z,96.30
2023-01-04T06:48:18.300Z,92.18
2023-01-04T06:49:40.625Z,82.45
2023-01-04T06:51:02.632Z,80.85
2023-01-04T06:52:24.426Z,82.07
2023-01-04T06:53:46.525Z,83.72
2023-01-04T06:55:11.826Z,85.95
2023-01-04T06:56:33.723Z,89.15
2023-01-04T06:57:59.522Z,91.15
2023-01-04T06:59:21.936Z,91.93
2023-01-04T07:00:43.805Z,94.53
2023-01-04T07:02:06.160Z,92.47
2023-01-04T07:03:28.321Z,88.40
2023-01-04T07:04:50.065Z,89.13
2023-01-04T07:06:12.114Z,88.93
2023-01-04T07:07:35.469Z,92.32
2023-01-04T07:08:57.191Z,77.88
2023-01-04T07:10:19.132Z,80.80
2023-01-04T07:11:40.667Z,86.00
2023-01-04T07:13:02.988Z,86.47
2023-01-04T07:14:24.978Z,97.68
2023-01-04T07:15:47.049Z,115.25
2023-01-04T07:17:08.964Z,124.70
2023-01-04T07:18:31.031Z,138.13
2023-01-04T07:19:53.248Z,122.80
2023-01-04T07:21:14.964Z,159.15
2023-01-04T07:22:36.591Z,152.98
2023-01-04T07:23:58.472Z,162.45
2023-01-04T07:25:20.686Z,180.05
2023-01-04T07:26:42.391Z,162.68
2023-01-04T07:28:04.520Z,143.60
2023-01-04T07:29:26.369Z,137.73
2023-01-04T07:30:48.220Z,131.23
2023-01-04T07:32:13.993Z,128.65
2023-01-04T07:33:36.129Z,122.82
2023-01-04T07:34:58.428Z,116.78
2023-01-04T07:36:20.314Z,116.55
2023-01-04T07:37:43.978Z,115.82
2023-01-04T07:39:05.815Z,98.22
2023-01-04T07:40:28.312Z,90.28
2023-01-04T07:41:50.867Z,94.00
2023-01-04T07:43:15.494Z,83.82
2023-01-04T07:44:37.567Z,82.88
2023-01-04T07:45:59.301Z,94.38
2023-01-04T07:47:20.947Z,88.07
2023-01-04T07:48:42.644Z,84.68
2023-01-04T07:50:06.150Z,84.90
2023-01-04T07:51:29.580Z,87.75
2023-01-04T07:52:51.574Z,87.20
2023-01-04T07:54:14.288Z,86.50
2023-01-04T07:55:36.064Z,91.75
2023-01-04T07:56:58.058Z,94.13
2023-01-04T07:58:19.731Z,93.03
2023-01-04T07:59:41.838Z,92.80
2023-01-04T08:01:08.768Z,90.15
2023-01-04T08:02:31.074Z,91.57
2023-01-04T08:03:53.895Z,90.63
2023-01-04T08:05:15.900Z,93.63
2023-01-04T08:06:38.498Z,94.82
2023-01-04T08:08:01.127Z,92.25
2023-01-04T08:09:23.124Z,119.13
2023-01-04T08:10:44.808Z,120.45
2023-01-04T08:12:06.767Z,101.97
2023-01-04T08:13:28.801Z,95.53
2023-01-04T08:14:50.816Z,106.30
2023-01-04T08:16:22.869Z,100.32
2023-01-04T08:17:44.563Z,102.13
2023-01-04T08:19:11.766Z,100.93
2023-01-04T08:20:33.569Z,108.55
2023-01-04T08:21:55.471Z,111.63
2023-01-04T08:23:17.113Z,114.38
2023-01-04T08:24:39.329Z,112.70
2023-01-04T08:26:09.926Z,114.53
2023-01-04T08:27:32.285Z,115.10
2023-01-04T08:28:54.860Z,103.80
2023-01-04T08:30:16.878Z,106.82
2023-01-04T08:31:39.378Z,100.82
2023-01-04T08:33:01.590Z,77.15
2023-01-04T08:34:23.499Z,59.47
2023-01-04T08:35:45.156Z,44.53
2023-01-04T08:37:07.131Z,42.53
2023-01-04T08:38:58.905Z,49.53
2023-01-04T08:40:10.998Z,42.90
2023-01-04T08:43:32.591Z,39.70
2023-01-04T08:44:59.990Z,45.28
2023-01-04T08:46:22.181Z,56.05
2023-01-04T08:47:44.116Z,56.78
2023-01-04T08:49:05.974Z,55.83
2023-01-04T08:50:27.950Z,54.03
2023-01-04T08:51:50.088Z,52.22
2023-01-04T08:53:12.944Z,51.28
2023-01-04T08:54:34.732Z,48.28
2023-01-04T08:55:58.727Z,47.80
2023-01-04T08:57:20.529Z,48.03
2023-01-04T08:58:42.456Z,42.90
2023-01-04T09:00:05.201Z,44.67
2023-01-04T09:01:27.388Z,44.75
2023-01-04T09:02:49.514Z,45.45
2023-01-04T09:04:11.537Z,44.58
2023-01-04T09:05:33.802Z,46.88
2023-01-04T09:06:55.605Z,46.63
2023-01-04T09:08:16.993Z,45.28
2023-01-04T09:09:38.836Z,40.03
2023-01-04T09:11:10.029Z,32.25
2023-01-04T09:12:31.716Z,33.97
2023-01-04T09:14:06.741Z,31.17
2023-01-04T09:15:29.408Z,33.95
2023-01-04T09:16:51.417Z,31.50
2023-01-04T09:18:31.637Z,29.58
2023-01-04T09:19:54.088Z,27.40
2023-01-04T09:21:18.948Z,25.25
2023-01-04T09:22:40.825Z,25.17
2023-01-04T09:24:03.068Z,26.45
2023-01-04T09:25:24.885Z,24.30
2023-01-04T09:26:47.594Z,26.33
2023-01-04T09:28:09.706Z,25.77
2023-01-04T09:29:31.461Z,25.65
2023-01-04T09:30:53.414Z,25.73
2023-01-04T09:32:16.974Z,24.80
2023-01-04T09:34:12.200Z,21.83
2023-01-04T09:35:21.026Z,19.63
2023-01-04T09:36:43.051Z,20.98
2023-01-04T09:38:04.980Z,19.80
2023-01-04T09:39:30.555Z,17.98
2023-01-04T09:41:06.827Z,19.13
2023-01-04T09:42:38.297Z,22.17
2023-01-04T09:44:10.266Z,21.55
2023-01-04T09:45:32.035Z,19.50
2023-01-04T09:47:05.543Z,21.27
2023-01-04T09:48:31.668Z,23.98
2023-01-04T09:50:03.018Z,21.48
2023-01-04T09:51:31.893Z,21.33
2023-01-04T09:53:18.682Z,19.55
2023-01-04T09:54:56.220Z,17.77
2023-01-04T09:56:39.766Z,18.23
2023-01-04T09:58:06.492Z,18.42
2023-01-04T09:59:34.201Z,17.70
2023-01-04T10:01:04.924Z,16.27
2023-01-04T10:02:49.093Z,17.63
2023-01-04T10:04:28.195Z,17.50
2023-01-04T10:05:51.310Z,18.23
2023-01-04T10:07:29.807Z,16.67
2023-01-04T10:08:51.781Z,17.05
2023-01-04T10:10:19.333Z,14.82
2023-01-04T10:12:05.843Z,17.88
2023-01-04T10:13:53.748Z,17.60
2023-01-04T10:15:27.394Z,15.85
2023-01-04T10:17:57.607Z,14.60
2023-01-04T10:21:39.109Z,12.02
2023-01-04T10:23:00.769Z,13.88
2023-01-04T10:24:31.471Z,12.80
2023-01-04T10:25:56.933Z,12.45
2023-01-04T10:27:57.168Z,13.25
2023-01-04T10:29:54.017Z,13.20
2023-01-04T10:31:39.308Z,12.13
2023-01-04T10:33:03.366Z,13.18
2023-01-04T10:34:42.037Z,13.00
2023-01-04T10:36:06.488Z,16.55
2023-01-04T10:37:36.433Z,17.45
2023-01-04T10:39:02.995Z,21.58
2023-01-04T10:40:28.181Z,14.85
2023-01-04T10:42:17.328Z,15.40
2023-01-04T10:44:11.233Z,13.73
2023-01-04T10:45:51.735Z,13.55
2023-01-04T10:47:21.786Z,11.25
2023-01-04T10:49:06.748Z,12.02
2023-01-04T10:50:31.256Z,11.05
2023-01-04T10:52:22.660Z,12.27
2023-01-04T10:53:52.981Z,12.40
2023-01-04T10:55:21.352Z,12.98
2023-01-04T10:56:56.397Z,14.25
2023-01-04T10:58:47.224Z,15.80
2023-01-04T11:00:21.827Z,18.23
2023-01-04T11:01:55.774Z,15.82
2023-01-04T11:03:40.239Z,20.55
2023-01-04T11:05:21.147Z,18.42
2023-01-04T11:06:53.786Z,15.57
2023-01-04T11:08:35.299Z,12.93
2023-01-04T11:10:06.775Z,13.23
2023-01-04T11:11:44.616Z,12.48
2023-01-04T11:13:06.438Z,13.32
2023-01-04T11:14:33.311Z,11.27
2023-01-04T11:16:02.881Z,12.77
2023-01-04T11:17:25.780Z,14.23
2023-01-04T11:18:49.428Z,15.23
2023-01-04T11:20:11.812Z,15.38
2023-01-04T11:21:43.322Z,13.70
2023-01-04T11:23:19.585Z,12.07
2023-01-04T11:24:54.521Z,11.30
2023-01-04T11:26:33.001Z,11.50
2023-01-04T11:28:26.724Z,11.60
2023-01-04T11:30:21.741Z,12.50
2023-01-04T11:31:49.667Z,13.00
2023-01-04T11:33:21.626Z,14.65
2023-01-04T11:34:56.982Z,17.75
2023-01-04T11:36:42.402Z,17.02
2023-01-04T11:38:25.122Z,15.35
2023-01-04T11:39:46.927Z,17.95
2023-01-04T11:41:16.854Z,14.75
2023-01-04T11:42:40.840Z,15.40
2023-01-04T11:44:05.542Z,15.57
2023-01-04T11:45:28.667Z,14.40
2023-01-04T11:47:08.294Z,21.70
2023-01-04T11:48:47.125Z,16.83
2023-01-04T11:50:48.188Z,12.85
2023-01-04T11:52:31.209Z,13.50
2023-01-04T11:54:02.055Z,11.73
2023-01-04T11:55:31.215Z,10.70
2023-01-04T11:57:11.800Z,10.18
2023-01-04T11:58:33.925Z,11.35
2023-01-04T12:00:10.917Z,14.07
2023-01-04T12:01:38.339Z,13.52
2023-01-04T12:03:18.060Z,14.15
2023-01-04T12:06:01.456Z,14.07
2023-01-04T12:07:35.009Z,14.75
2023-01-04T12:08:56.946Z,12.13
2023-01-04T12:10:26.953Z,11.30
2023-01-04T12:11:56.141Z,11.95
2023-01-04T12:13:18.377Z,12.20
2023-01-04T12:14:47.883Z,9.60
2023-01-04T12:16:28.103Z,11.20
2023-01-04T12:18:04.586Z,11.80
2023-01-04T12:19:26.481Z,12.13
2023-01-04T12:20:48.156Z,12.52
2023-01-04T12:22:38.117Z,14.48
2023-01-04T12:23:59.940Z,15.35
2023-01-04T12:25:36.791Z,14.10
2023-01-04T12:26:59.246Z,15.75
2023-01-04T12:28:42.772Z,15.00
2023-01-04T12:30:08.212Z,15.48
2023-01-04T12:31:31.769Z,15.65
2023-01-04T12:32:53.737Z,14.70
2023-01-04T12:34:26.109Z,17.58
2023-01-04T12:36:04.911Z,14.27
2023-01-04T12:37:45.945Z,13.77
2023-01-04T12:39:16.393Z,12.93
2023-01-04T12:40:47.847Z,14.10
2023-01-04T12:42:11.638Z,13.48
2023-01-04T12:43:44.734Z,12.15
2023-01-04T12:45:15.366Z,12.13
2023-01-04T12:47:00.982Z,13.38
2023-01-04T12:48:47.148Z,11.30
2023-01-04T12:50:19.555Z,13.88
2023-01-04T12:51:52.038Z,13.95
2023-01-04T12:53:50.989Z,10.60
2023-01-04T12:55:31.661Z,11.55
2023-01-04T12:57:24.033Z,12.27
2023-01-04T12:59:25.274Z,13.57
2023-01-04T13:00:53.542Z,11.80
2023-01-04T13:02:18.960Z,11.40
2023-01-04T13:03:48.675Z,13.73
2023-01-04T13:07:25.620Z,12.90
2023-01-04T13:08:50.181Z,12.93
2023-01-04T13:10:30.788Z,13.68
2023-01-04T13:12:07.612Z,14.38
2023-01-04T13:13:32.294Z,14.55
2023-01-04T13:15:02.004Z,13.85
2023-01-04T13:16:34.422Z,12.10
2023-01-04T13:17:57.910Z,13.82
2023-01-04T13:19:26.594Z,14.13
2023-01-04T13:20:48.550Z,15.48
2023-01-04T13:22:17.569Z,13.60
2023-01-04T13:23:41.084Z,14.77
2023-01-04T13:25:04.817Z,14.38
2023-01-04T13:26:35.852Z,14.20
2023-01-04T13:28:00.286Z,14.65
2023-01-04T13:29:25.409Z,14.93
2023-01-04T13:30:47.638Z,15.50
2023-01-04T13:32:23.496Z,17.55
2023-01-04T13:33:47.469Z,14.90
2023-01-04T13:35:14.789Z,16.73
2023-01-04T13:36:36.781Z,16.63
2023-01-04T13:38:00.704Z,15.95
2023-01-04T13:39:24.022Z,14.90
2023-01-04T13:40:49.604Z,16.20
2023-01-04T13:42:28.548Z,14.00
2023-01-04T13:44:12.110Z,16.92
2023-01-04T13:46:14.346Z,17.80
2023-01-04T13:47:39.262Z,14.10
2023-01-04T13:49:03.305Z,14.68
2023-01-04T13:50:40.223Z,15.48
2023-01-04T13:52:47.270Z,15.77
2023-01-04T13:54:17.188Z,20.58
2023-01-04T13:55:39.616Z,17.48
2023-01-04T13:57:09.444Z,17.08
2023-01-04T13:59:54.330Z,16.27
2023-01-04T14:01:24.977Z,20.58
2023-01-04T14:02:47.521Z,18.52
2023-01-04T14:04:21.743Z,17.63
2023-01-04T14:05:52.408Z,23.70
2023-01-04T14:07:22.933Z,23.42
2023-01-04T14:08:51.445Z,21.90
2023-01-04T14:10:18.763Z,22.60
2023-01-04T14:12:05.662Z,24.17
2023-01-04T14:13:29.154Z,21.85
2023-01-04T14:15:00.452Z,24.05
2023-01-04T14:16:22.312Z,20.02
2023-01-04T14:17:48.820Z,19.48
2023-01-04T14:19:48.228Z,19.42
2023-01-04T14:21:18.320Z,18.88
2023-01-04T14:22:40.003Z,17.70
2023-01-04T14:24:02.364Z,17.35
2023-01-04T14:25:48.575Z,18.70
2023-01-04T14:27:36.976Z,20.33
2023-01-04T14:28:59.101Z,18.95
2023-01-04T14:30:20.619Z,22.10
2023-01-04T14:31:44.808Z,23.15
2023-01-04T14:33:19.796Z,27.10
2023-01-04T14:34:41.731Z,25.67
2023-01-04T14:36:39.410Z,22.33
2023-01-04T14:38:11.119Z,20.88
2023-01-04T14:39:34.304Z,17.27
2023-01-04T14:40:56.452Z,17.10
2023-01-04T14:42:27.256Z,16.83
2023-01-04T14:43:54.914Z,16.60
2023-01-04T14:45:16.686Z,14.70
2023-01-04T14:46:39.424Z,16.23
2023-01-04T14:48:01.409Z,18.23
2023-01-04T14:49:26.795Z,15.73
2023-01-04T14:50:49.498Z,17.90
2023-01-04T14:52:21.328Z,17.73
2023-01-04T14:53:43.644Z,16.98
2023-01-04T14:55:05.994Z,17.40
2023-01-04T14:56:27.549Z,21.17
2023-01-04T14:57:49.551Z,19.98
2023-01-04T14:59:11.714Z,19.15
2023-01-04T15:00:33.264Z,19.98
2023-01-04T15:01:56.905Z,21.73
2023-01-04T15:03:18.802Z,24.02
2023-01-04T15:04:40.952Z,18.85
2023-01-04T15:06:02.619Z,21.58
2023-01-04T15:07:36.185Z,23.10
2023-01-04T15:08:57.616Z,21.85
2023-01-04T15:10:26.089Z,27.83
2023-01-04T15:11:47.810Z,23.15
2023-01-04T15:13:09.758Z,23.35
2023-01-04T15:14:31.876Z,25.20
2023-01-04T15:15:54.000Z,25.60
2023-01-04T15:17:15.948Z,27.48
2023-01-04T15:18:37.798Z,29.02
2023-01-04T15:19:59.654Z,31.67
2023-01-04T15:21:21.708Z,33.10
2023-01-04T15:22:44.193Z,31.63
2023-01-04T15:24:06.326Z,32.03
2023-01-04T15:25:29.752Z,31.23
2023-01-04T15:26:51.573Z,28.67
2023-01-04T15:28:14.987Z,28.77
2023-01-04T15:29:36.965Z,28.00
2023-01-04T15:30:59.707Z,27.00
2023-01-04T15:32:21.480Z,23.95
2023-01-04T15:33:43.289Z,23.92
2023-01-04T15:35:05.466Z,23.75
2023-01-04T15:36:27.356Z,23.48
2023-01-04T15:37:49.695Z,20.02
2023-01-04T15:39:14.216Z,20.90
2023-01-04T15:40:36.390Z,20.63
2023-01-04T15:42:30.088Z,21.17
2023-01-04T15:43:51.670Z,21.20
2023-01-04T15:45:13.589Z,22.50
2023-01-04T15:46:35.661Z,22.85
2023-01-04T15:48:03.031Z,24.58
2023-01-04T15:49:25.248Z,24.63
2023-01-04T15:50:46.958Z,26.52
2023-01-04T15:52:08.990Z,29.67
2023-01-04T15:53:31.063Z,25.85
2023-01-04T15:54:53.078Z,27.13
2023-01-04T15:56:15.128Z,26.77
2023-01-04T15:57:41.797Z,27.48
2023-01-04T15:59:05.627Z,28.42
2023-01-04T16:00:27.954Z,26.67
2023-01-04T16:01:49.929Z,26.90
2023-01-04T16:03:11.840Z,32.13
2023-01-04T16:04:35.121Z,27.27
2023-01-04T16:05:57.052Z,25.42
2023-01-04T16:07:18.914Z,29.42
2023-01-04T16:08:42.079Z,33.63
2023-01-04T16:10:04.718Z,33.83
2023-01-04T16:11:26.865Z,32.60
2023-01-04T16:12:54.715Z,29.80
2023-01-04T16:15:39.717Z,32.95
2023-01-04T16:17:01.633Z,34.33
2023-01-04T16:18:26.346Z,34.33
2023-01-04T16:19:52.242Z,35.30
2023-01-04T16:21:15.284Z,35.70
2023-01-04T16:22:37.483Z,34.70
2023-01-04T16:24:09.338Z,32.80
2023-01-04T16:25:38.699Z,31.02
2023-01-04T16:27:00.255Z,32.63
2023-01-04T16:28:22.060Z,27.48
2023-01-04T16:29:43.969Z,27.77
2023-01-04T16:31:07.776Z,27.35
2023-01-04T16:32:29.770Z,31.90
2023-01-04T16:33:54.854Z,36.45
2023-01-04T16:35:16.937Z,37.60
2023-01-04T16:36:39.014Z,45.53
2023-01-04T16:38:00.759Z,40.25
2023-01-04T16:39:28.324Z,42.50
2023-01-04T16:41:05.471Z,45.17
2023-01-04T16:42:27.165Z,46.47
2023-01-04T16:43:51.966Z,45.53
2023-01-04T16:45:13.801Z,43.38
2023-01-04T16:46:37.525Z,43.60
2023-01-04T16:48:01.069Z,44.47
2023-01-04T16:49:22.709Z,49.10
2023-01-04T16:50:44.202Z,52.17
2023-01-04T16:52:10.457Z,54.17
2023-01-04T16:53:32.527Z,49.33
2023-01-04T16:54:54.475Z,54.65
2023-01-04T16:56:18.509Z,66.07
2023-01-04T16:57:40.503Z,73.43
2023-01-04T16:59:02.366Z,68.32
2023-01-04T17:00:24.306Z,67.15
2023-01-04T17:01:57.360Z,67.07
2023-01-04T17:03:19.555Z,72.53
2023-01-04T17:04:41.496Z,65.03
2023-01-04T17:06:12.463Z,70.15
2023-01-04T17:07:34.652Z,91.35
2023-01-04T17:08:57.990Z,71.18
2023-01-04T17:10:25.555Z,84.43
2023-01-04T17:13:42.426Z,81.78
2023-01-04T17:16:46.077Z,82.57
2023-01-04T17:18:09.568Z,88.57
2023-01-04T17:19:31.491Z,84.78
2023-01-04T17:21:24.161Z,100.47
2023-01-04T17:22:41.351Z,137.75
2023-01-04T17:24:03.665Z,138.45
2023-01-04T17:25:25.622Z,121.82
2023-01-04T17:26:48.250Z,122.95
2023-01-04T17:28:10.353Z,137.13
2023-01-04T17:29:32.303Z,126.80
2023-01-04T17:30:53.883Z,140.43
2023-01-04T17:32:15.932Z,141.63
2023-01-04T17:33:38.055Z,123.55
2023-01-04T17:34:59.957Z,117.03
2023-01-04T17:36:22.788Z,119.95
2023-01-04T17:37:44.685Z,132.25
2023-01-04T17:39:08.556Z,133.38
2023-01-04T17:40:30.419Z,149.93
2023-01-04T17:41:52.212Z,158.98
2023-01-04T17:43:14.079Z,152.38
2023-01-04T17:44:35.933Z,129.23
2023-01-04T17:46:02.592Z,130.90
2023-01-04T17:47:24.642Z,129.25
2023-01-04T17:48:46.905Z,135.10
2023-01-04T17:50:08.948Z,97.85
2023-01-04T17:51:31.133Z,95.88
2023-01-04T17:52:52.994Z,94.15
2023-01-04T17:54:14.713Z,99.40
2023-01-04T17:55:36.635Z,108.45
2023-01-04T17:56:58.477Z,106.80
2023-01-04T17:58:23.302Z,105.47
2023-01-04T17:59:45.285Z,115.47
2023-01-04T18:01:16.481Z,114.13
2023-01-04T18:02:38.498Z,105.82
2023-01-04T18:04:01.954Z,107.63
2023-01-04T18:05:23.880Z,115.43
2023-01-04T18:06:45.774Z,113.43
2023-01-04T18:08:08.719Z,117.13
2023-01-04T18:09:30.523Z,112.28
2023-01-04T18:11:08.410Z,100.75
2023-01-04T18:12:31.065Z,112.97
2023-01-04T18:13:53.456Z,129.27
2023-01-04T18:15:15.483Z,131.07
2023-01-04T18:16:56.971Z,113.85
2023-01-04T18:18:19.563Z,114.03
2023-01-04T18:19:44.558Z,114.90
2023-01-04T18:21:27.045Z,106.80
2023-01-04T18:22:50.143Z,91.50
2023-01-04T18:25:53.671Z,120.55
2023-01-04T18:27:25.040Z,120.22
2023-01-04T18:28:49.581Z,119.57
2023-01-04T18:30:12.028Z,114.88
2023-01-04T18:31:34.879Z,117.22
2023-01-04T18:32:56.851Z,116.43
2023-01-04T18:34:19.043Z,105.38
2023-01-04T18:35:40.697Z,92.35
2023-01-04T18:37:02.600Z,90.43
2023-01-04T18:38:24.563Z,101.25
2023-01-04T18:39:47.619Z,110.60
2023-01-04T18:41:09.999Z,104.90
2023-01-04T18:42:32.361Z,99.95
2023-01-04T18:44:13.672Z,102.45
2023-01-04T18:45:41.064Z,85.55
2023-01-04T18:47:03.537Z,64.70
2023-01-04T18:48:25.313Z,61.97
2023-01-04T18:49:47.580Z,62.53
2023-01-04T18:51:12.499Z,65.78
2023-01-04T18:52:35.683Z,67.95
2023-01-04T18:53:57.351Z,55.75
2023-01-04T18:55:19.150Z,58.40
2023-01-04T18:56:41.133Z,49.00
2023-01-04T18:58:02.987Z,73.70